createdAt,value
2022-09-12T00:09:52.845Z,74584.97
2022-09-12T00:19:59.594Z,74593.06
2022-09-12T00:30:06.603Z,74597.09
2022-09-12T00:40:11.569Z,74603.19
2022-09-12T00:50:14.829Z,74613.28
2022-09-12T01:00:26.321Z,74629.47
2022-09-12T01:10:35.260Z,74623.41
2022-09-12T01:21:23.293Z,74643.66
2022-09-12T01:31:36.461Z,74637.56
2022-09-12T01:42:20.549Z,74641.63
2022-09-12T01:52:38.113Z,74663.88
2022-09-12T02:02:43.962Z,74663.88
2022-09-12T02:13:19.815Z,74645.66
2022-09-12T02:23:29.123Z,74661.84
2022-09-12T02:33:45.579Z,74663.88
2022-09-12T02:43:55.446Z,74653.75
2022-09-12T02:54:16.565Z,74657.81
2022-09-12T03:04:31.319Z,74653.75
2022-09-12T03:15:01.976Z,74657.81
2022-09-12T03:25:29.889Z,74680.06
2022-09-12T03:35:40.101Z,74678.03
2022-09-12T03:45:48.336Z,74702.31
2022-09-12T03:55:53.403Z,74722.56
2022-09-12T04:05:59.348Z,74746.84
2022-09-12T04:16:05.271Z,74767.06
2022-09-12T04:26:12.068Z,74783.25
2022-09-12T04:36:20.771Z,74787.28
2022-09-12T04:46:32.619Z,74799.44
2022-09-12T04:56:42.185Z,74815.63
2022-09-12T05:06:48.049Z,74819.66
2022-09-12T05:16:51.136Z,74831.81
2022-09-12T05:26:53.704Z,74835.84
2022-09-12T05:36:58.483Z,74833.84
2022-09-12T05:47:03.853Z,74835.84
2022-09-12T05:57:08.205Z,74831.81
2022-09-12T06:07:10.637Z,74835.84
2022-09-12T06:17:17.023Z,74833.84
2022-09-12T06:27:22.220Z,74825.75
2022-09-12T06:37:33.495Z,74823.72
2022-09-12T06:47:38.311Z,74821.69
2022-09-12T06:57:46.218Z,74807.53
2022-09-12T07:07:56.194Z,74799.44
2022-09-12T07:18:03.443Z,74807.53
2022-09-12T07:28:14.693Z,74799.44
2022-09-12T07:38:28.366Z,74797.41
2022-09-12T07:48:33.044Z,74736.72
2022-09-12T07:58:42.114Z,74732.66
2022-09-12T08:08:46.746Z,74736.72
2022-09-12T08:18:52.049Z,74714.47
2022-09-12T08:28:56.311Z,74704.34
2022-09-12T08:39:05.409Z,74686.13
2022-09-12T08:49:23.083Z,74669.94
2022-09-12T08:59:39.186Z,74669.94
2022-09-12T09:10:07.994Z,74637.56
2022-09-12T09:20:22.985Z,74637.56
2022-09-12T09:30:30.473Z,74617.34
2022-09-12T09:40:41.776Z,74593.06
2022-09-12T09:50:49.340Z,74576.88
2022-09-12T10:01:01.862Z,74593.06
2022-09-12T10:11:08.257Z,74564.75
2022-09-12T10:21:29.503Z,74589.00
2022-09-12T10:31:44.138Z,74587.00
2022-09-12T10:41:46.797Z,74578.91
2022-09-12T10:51:50.501Z,74591.03
2022-09-12T11:02:01.622Z,74589.00
2022-09-12T11:12:12.336Z,74580.94
2022-09-12T11:22:55.291Z,74560.69
2022-09-12T11:33:51.319Z,74528.31
2022-09-12T11:44:43.310Z,74500.00
2022-09-12T11:54:58.070Z,74497.97
2022-09-12T12:05:15.172Z,74514.16
2022-09-12T12:15:20.017Z,74500.00
2022-09-12T12:25:53.073Z,74502.03
2022-09-12T12:36:19.641Z,74504.03
2022-09-12T12:46:28.829Z,74479.75
2022-09-12T12:56:44.761Z,74487.84
2022-09-12T13:07:05.829Z,74481.78
2022-09-12T13:17:20.584Z,74475.72
2022-09-12T13:27:38.596Z,74475.72
2022-09-12T13:38:09.138Z,74459.53
2022-09-12T13:48:28.688Z,74431.22
2022-09-12T13:58:35.303Z,74421.09
2022-09-12T14:08:41.931Z,74392.78
2022-09-12T14:18:47.464Z,74370.50
2022-09-12T14:28:50.371Z,74366.47
2022-09-12T14:39:07.902Z,74366.47
2022-09-12T14:49:19.819Z,74360.41
2022-09-12T15:00:02.494Z,74358.38
2022-09-12T15:10:18.624Z,74378.59
2022-09-12T15:20:24.283Z,74380.63
2022-09-12T15:30:26.505Z,74406.94
2022-09-12T15:40:29.977Z,74429.19
2022-09-12T15:50:33.017Z,74495.94
2022-09-12T16:00:42.813Z,74522.25
2022-09-12T16:10:46.413Z,74524.28
2022-09-12T16:20:54.349Z,74544.50
2022-09-12T16:31:03.147Z,74540.47
2022-09-12T16:41:07.488Z,74546.53
2022-09-12T16:51:09.972Z,74556.66
2022-09-12T17:01:24.326Z,74593.06
2022-09-12T17:11:41.589Z,74587.00
2022-09-12T17:21:45.203Z,74564.75
2022-09-12T17:31:52.727Z,74574.84
2022-09-12T17:41:58.098Z,74576.88
2022-09-12T17:52:06.240Z,74562.72
2022-09-12T18:02:13.678Z,74554.63
2022-09-12T18:12:19.126Z,74560.69
2022-09-12T18:22:26.435Z,74552.59
2022-09-12T18:32:32.925Z,74550.56
2022-09-12T18:42:40.454Z,74548.56
2022-09-12T18:52:44.792Z,74550.56
2022-09-12T19:02:47.340Z,74564.75
2022-09-12T19:12:51.834Z,74560.69
2022-09-12T19:22:54.078Z,74572.84
2022-09-12T19:33:01.093Z,74574.84
2022-09-12T19:43:03.199Z,74584.97
2022-09-12T19:53:07.951Z,74603.19
2022-09-12T20:03:13.407Z,74611.28
2022-09-12T20:13:16.618Z,74631.50
2022-09-12T20:23:23.645Z,74643.66
2022-09-12T20:33:30.844Z,74665.91
2022-09-12T20:43:40.364Z,74671.97
2022-09-12T20:53:44.823Z,74682.09
2022-09-12T21:03:57.619Z,74582.94
2022-09-12T21:13:59.735Z,74637.56
2022-09-12T21:24:04.175Z,74671.97
2022-09-12T21:34:11.332Z,74696.25
2022-09-12T21:44:19.397Z,74702.31
2022-09-12T21:54:24.138Z,74698.28
2022-09-12T22:04:26.613Z,74688.16
2022-09-12T22:14:31.914Z,74678.03
2022-09-12T22:24:36.651Z,74661.84
2022-09-12T22:34:43.480Z,74639.59
2022-09-12T22:44:50.187Z,74633.53
2022-09-12T22:54:54.994Z,74645.66
2022-09-12T23:05:01.150Z,74641.63
2022-09-12T23:15:03.698Z,74657.81
2022-09-12T23:25:10.987Z,74665.91
2022-09-12T23:35:22.886Z,74671.97
2022-09-12T23:45:25.301Z,74667.91
2022-09-12T23:55:32.793Z,74682.09
